Tar Heel, NC (28392)

5:20 AM EST op 07 februari 2016 (GMT -0500)
Tobermory (N.W. Bladen County) | | Change Station
CLOSE
Current Station
Persoonlijk weerstation
Location: Fayetteville, NC
Geometrische hoogte: 140 ft
Nabije weerstations
Actief advies: Flood Warning

Hoogte 140 ft 34.83 °N, 78.87 °W | Updated 4 minutes ago

Helder
Helder
36.0 °F
Voelt als 30 °F
N
8.3
Wind Variabel Wind van NO

Vandaag
Hoog -- | Laag -- °F
--% Kans op neerslag
Gisteren
Hoog -- | Laag -- °F
Precip. -- inches
Druk 30.06 inches
Zicht 10.0 mijlen
Wolken Geheel bewolkt 6000 ft
Gevoelstemperatuur 30 °F
Dauwpunt 34 °F
Vochtigheid 92%
Neerslag 0.22 inches
Dikte sneeuw Niet beschikbaar.
7:09 AM 5:50 PM
Afnemende halvemaan, 2% visible
METAR KLBT 070954Z AUTO 03015KT 10SM -RA OVC060 03/01 A3006 RMK AO2 PRESFR SLP180 P0002 T00330006
Druk 30.06 inches
Zicht 10.0 mijlen
Wolken Geheel bewolkt 6000 ft
Gevoelstemperatuur 30 °F
Dauwpunt 34 °F
Vochtigheid 92%
Neerslag 0.22 inches
Dikte sneeuw Niet beschikbaar.
7:09 AM 5:50 PM
Afnemende halvemaan, 2% visible
METAR KLBT 070954Z AUTO 03015KT 10SM -RA OVC060 03/01 A3006 RMK AO2 PRESFR SLP180 P0002 T00330006

10-Day Weather Forecast

Almanac

Astronomie

Feb. 07, 2016 Opkomst Ondergang
Werkelijke tijd
Burgerlijke schemering
Nautische schemering
Astronomische schemering
Maan
Golflengte van het zichtbare licht
Daglengte
Tomorrow will be .
, % of the Moon is Illuminated

Extremen vandaag

State Highs State Lows

Community

WunderPhotos

Upload Photos

1,891,171 foto’s ge-upload!

WunderBlog® & News

Nearby

Luchtkwaliteit

  Luchtkwaliteit LK-index Verontreinigende stof
Not available.

Dikte sneeuw

Station Depth Geometrische hoogte

Aardbevingen

Stad Distance Mag. Time & Date
Minimum magnitude displayed is 2.5.

Watertemperatuur langs de kust

Plaats Temperatuur

Stations

Nabije weerstations

Locatie station Temp. Gevoelstemperatuur Dauwpunt Vochtigheid Wind Precip. Hoogte Geactualiseerd Type
                   

Watches & Warnings

Flood Warning
Issued: 8:01 PM EST Feb. 6, 2016 – National Weather Service

... Flood Warning now in effect until Sunday morning...
the Flood Warning continues for
the Cape Fear at William o Huske lock and dam 3.
* Until Sunday morning.
* At 7:00 PM Saturday the stage was 42.24 feet.
* Flood stage is 42.0 feet.
* Minor flooding is occurring.
* Forecast... the river will continue to fall to below flood stage by this
evening.
* Impact... at 42.0 feet... water levels will top the navigational lock. Operations
stop and the equipment must be removed. Minor flooding will occur on land
adjacent to the left bank of the river.


Lat... Lon 3485 7886 3485 7875 3478 7874 3472 7865
          3465 7872 3472 7882